Costa Victoria — IBLC — position and weather

sailwx.info

Track history (hours):
 
Tides and Currents Weather Stations Pressure Air Temp Water Temp Dewpoint Dewpoint Depression Visibility Wind Speed Wind Dir Waves Ship Positions

Costa Victoria

Last reported at 2017-Jun-18 03:53 UTC. Time now 2017-Jun-29 01:57 UTC.
Position N 33°49' E 125°57'.
Warning: this ship's position is 10 days out of date.

Length 253 m; draft 8 m.

Type: Ship. MMSI: 247109000.

Date/timePositionNaut miles runAvg speedWind from/ knotsBaromVisibWave heightAir tempDewpointWater temp
2017-Jun-18 03:53N 33°49' E 125°57'3317.4
2017-Jun-18 02:00N 33°58' E 125°19'19016.7
2017-Jun-17 14:37N 35°27' E 121°56'316.8
2017-Jun-17 14:25N 35°29' E 121°52'1516.8
2017-Jun-17 13:30N 35°37' E 121°36'816.6
2017-Jun-17 13:00N 35°41' E 121°27'816.5
2017-Jun-17 12:30N 35°45' E 121°18'1216.5
2017-Jun-17 11:46N 35°51' E 121°05'104 5.3
2017-Jun-16 16:02N 36°49' E 122°52'118.0
2017-Jun-16 16:00N 36°49' E 122°52'2818.0
2017-Jun-16 14:29N 37°17' E 122°58'4917.7
2017-Jun-16 11:42N 38°01' E 122°30'419.2
2017-Jun-16 11:31N 38°04' E 122°27'1019.2
2017-Jun-16 11:00N 38°12' E 122°20'1019.3
2017-Jun-16 10:31N 38°19' E 122°13'1019.3
2017-Jun-16 10:00N 38°27' E 122°06'1019.2
2017-Jun-16 09:30N 38°35' E 121°59'918.5
2017-Jun-16 09:01N 38°42' E 121°51'815.7
2017-Jun-16 08:30N 38°49' E 121°47'7 0.8
2017-Jun-16 00:07N 38°56' E 121°43'410.8
2017-Jun-15 23:46N 38°53' E 121°47'310.3
2017-Jun-15 23:30N 38°51' E 121°48'612.0
2017-Jun-15 23:00N 38°47' E 121°53'1012.0
2017-Jun-15 22:10N 38°40' E 122°03'212.0
2017-Jun-15 21:58N 38°39' E 122°06'511.9
2017-Jun-15 21:30N 38°36' E 122°11'611.6
2017-Jun-15 21:00N 38°32' E 122°17'611.8
2017-Jun-15 20:30N 38°28' E 122°23'611.8
2017-Jun-15 20:00N 38°25' E 122°29'611.9
2017-Jun-15 19:29N 38°21' E 122°35'611.8
2017-Jun-15 19:00N 38°18' E 122°41'2612.0
2017-Jun-15 16:48N 38°02' E 123°08'4416.4
2017-Jun-15 14:08N 37°23' E 123°33'1117.5
2017-Jun-15 13:29N 37°12' E 123°38'917.3
2017-Jun-15 12:57N 37°03' E 123°42'3816.7
2017-Jun-15 10:42N 36°28' E 123°58'316.6
2017-Jun-15 10:30N 36°25' E 123°59'916.5
2017-Jun-15 09:58N 36°17' E 124°03'  
2017-Jun-11 13:29N 38°11' E 122°53'919.0
2017-Jun-11 13:00N 38°16' E 122°43'918.9
2017-Jun-11 12:30N 38°22' E 122°34'1019.0
2017-Jun-11 12:00N 38°28' E 122°24'1019.3
2017-Jun-11 11:30N 38°33' E 122°15'1019.2
2017-Jun-11 11:00N 38°39' E 122°05'1019.1
2017-Jun-11 10:30N 38°45' E 121°55'917.4
2017-Jun-11 10:00N 38°50' E 121°46'8 1.3
2017-Jun-11 03:55N 38°56' E 121°39'0 0.0
2017-Jun-11 00:34N 38°56' E 121°40'0 1.5
2017-Jun-11 00:30N 38°56' E 121°40'4 7.8
2017-Jun-10 23:58N 38°55' E 121°45'510.4
2017-Jun-10 23:31N 38°51' E 121°47'713.4
2017-Jun-10 23:00N 38°46' E 121°54'815.5
2017-Jun-10 22:30N 38°41' E 122°01'816.2
2017-Jun-10 22:00N 38°36' E 122°10'918.2
2017-Jun-10 21:30N 38°31' E 122°19'918.3
2017-Jun-10 21:00N 38°25' E 122°28'918.2
2017-Jun-10 20:30N 38°20' E 122°38'918.3
2017-Jun-10 20:00N 38°14' E 122°47'918.1
2017-Jun-10 19:30N 38°09' E 122°56'917.8
2017-Jun-10 19:00N 38°03' E 123°05'918.0
2017-Jun-10 18:30N 37°58' E 123°14'917.3
2017-Jun-10 18:00N 37°51' E 123°20'917.8
2017-Jun-10 17:30N 37°43' E 123°24'917.4
2017-Jun-10 17:00N 37°34' E 123°28'1315.7
2017-Jun-10 16:12N 37°23' E 123°34'314.3
2017-Jun-10 16:00N 37°20' E 123°36'714.2
2017-Jun-10 15:29N 37°13' E 123°38'  
Track history (hours):
 
Tides and Currents Weather Stations Pressure Air Temp Water Temp Dewpoint Dewpoint Depression Visibility Wind Speed Wind Dir Waves Ship Positions

Costa Victoria

Last reported at 2017-Jun-18 03:53 UTC. Time now 2017-Jun-29 01:57 UTC.
Position N 33°49' E 125°57'.
Warning: this ship's position is 10 days out of date.

Length 253 m; draft 8 m.

Type: Ship. MMSI: 247109000.

Date/timePositionNaut miles runAvg speedWind from/ knotsBaromVisibWave heightAir tempDewpointWater temp
2017-Jun-18 03:53N 33°49' E 125°57'3317.4
2017-Jun-18 02:00N 33°58' E 125°19'19016.7
2017-Jun-17 14:37N 35°27' E 121°56'316.8
2017-Jun-17 14:25N 35°29' E 121°52'1516.8
2017-Jun-17 13:30N 35°37' E 121°36'816.6
2017-Jun-17 13:00N 35°41' E 121°27'816.5
2017-Jun-17 12:30N 35°45' E 121°18'1216.5
2017-Jun-17 11:46N 35°51' E 121°05'104 5.3
2017-Jun-16 16:02N 36°49' E 122°52'118.0
2017-Jun-16 16:00N 36°49' E 122°52'2818.0
2017-Jun-16 14:29N 37°17' E 122°58'4917.7
2017-Jun-16 11:42N 38°01' E 122°30'419.2
2017-Jun-16 11:31N 38°04' E 122°27'1019.2
2017-Jun-16 11:00N 38°12' E 122°20'1019.3
2017-Jun-16 10:31N 38°19' E 122°13'1019.3
2017-Jun-16 10:00N 38°27' E 122°06'1019.2
2017-Jun-16 09:30N 38°35' E 121°59'918.5
2017-Jun-16 09:01N 38°42' E 121°51'815.7
2017-Jun-16 08:30N 38°49' E 121°47'7 0.8
2017-Jun-16 00:07N 38°56' E 121°43'410.8
2017-Jun-15 23:46N 38°53' E 121°47'310.3
2017-Jun-15 23:30N 38°51' E 121°48'612.0
2017-Jun-15 23:00N 38°47' E 121°53'1012.0
2017-Jun-15 22:10N 38°40' E 122°03'212.0
2017-Jun-15 21:58N 38°39' E 122°06'511.9
2017-Jun-15 21:30N 38°36' E 122°11'611.6
2017-Jun-15 21:00N 38°32' E 122°17'611.8
2017-Jun-15 20:30N 38°28' E 122°23'611.8
2017-Jun-15 20:00N 38°25' E 122°29'611.9
2017-Jun-15 19:29N 38°21' E 122°35'611.8
2017-Jun-15 19:00N 38°18' E 122°41'2612.0
2017-Jun-15 16:48N 38°02' E 123°08'4416.4
2017-Jun-15 14:08N 37°23' E 123°33'1117.5
2017-Jun-15 13:29N 37°12' E 123°38'917.3
2017-Jun-15 12:57N 37°03' E 123°42'3816.7
2017-Jun-15 10:42N 36°28' E 123°58'316.6
2017-Jun-15 10:30N 36°25' E 123°59'916.5
2017-Jun-15 09:58N 36°17' E 124°03'  
2017-Jun-11 13:29N 38°11' E 122°53'919.0
2017-Jun-11 13:00N 38°16' E 122°43'918.9
2017-Jun-11 12:30N 38°22' E 122°34'1019.0
2017-Jun-11 12:00N 38°28' E 122°24'1019.3
2017-Jun-11 11:30N 38°33' E 122°15'1019.2
2017-Jun-11 11:00N 38°39' E 122°05'1019.1
2017-Jun-11 10:30N 38°45' E 121°55'917.4
2017-Jun-11 10:00N 38°50' E 121°46'8 1.3
2017-Jun-11 03:55N 38°56' E 121°39'0 0.0
2017-Jun-11 00:34N 38°56' E 121°40'0 1.5
2017-Jun-11 00:30N 38°56' E 121°40'4 7.8
2017-Jun-10 23:58N 38°55' E 121°45'510.4
2017-Jun-10 23:31N 38°51' E 121°47'713.4
2017-Jun-10 23:00N 38°46' E 121°54'815.5
2017-Jun-10 22:30N 38°41' E 122°01'816.2
2017-Jun-10 22:00N 38°36' E 122°10'918.2
2017-Jun-10 21:30N 38°31' E 122°19'918.3
2017-Jun-10 21:00N 38°25' E 122°28'918.2
2017-Jun-10 20:30N 38°20' E 122°38'918.3
2017-Jun-10 20:00N 38°14' E 122°47'918.1
2017-Jun-10 19:30N 38°09' E 122°56'917.8
2017-Jun-10 19:00N 38°03' E 123°05'918.0
2017-Jun-10 18:30N 37°58' E 123°14'917.3
2017-Jun-10 18:00N 37°51' E 123°20'917.8
2017-Jun-10 17:30N 37°43' E 123°24'917.4
2017-Jun-10 17:00N 37°34' E 123°28'1315.7
2017-Jun-10 16:12N 37°23' E 123°34'314.3
2017-Jun-10 16:00N 37°20' E 123°36'714.2
2017-Jun-10 15:29N 37°13' E 123°38'  

Dump ship's entire track history